KALI/ALI METAR and TAF weather

Enter ICAO airport designator
Station Type Date Time Source
KALI METAR 2018/07/16 23:53 UTC NOAA

KALI 162353Z AUTO 15013KT 10SM CLR 32/22 A2995 RMK AO2 SLP138 T03220222 10361 20322 56011


Station Type Date Time Source
KALI Decoded METAR 2018/07/16 23:53 UTC NOAA

ALICE INTERNATIONAL AIRPORT, TX, United States (KALI) 27-44N 098-01W 53M
Jul 16, 2018 - 07:53 PM EDT / 2018.07.16 2353 UTC
Wind: from the SSE (150 degrees) at 15 MPH (13 KT):0
Visibility: 10 mile(s):0
Sky conditions: clear
Temperature: 90.0 F (32.2 C)
Heat index: 97.0 F (36.1 C):1
Dew Point: 72.0 F (22.2 C)
Relative Humidity: 55%
Pressure (altimeter): 29.95 in. Hg (1014 hPa)
Pressure tendency: 0.03 inches (1.1 hPa) lower than three hours ago
ob: KALI 162353Z AUTO 15013KT 10SM CLR 32/22 A2995 RMK AO2 SLP138 T03220222 10361 20322 56011
cycle: 0

Station Type Date Time Source
KALI TAF 2018/07/16 18:45 UTC NOAA

TAF KALI 161742Z 1618/1718 16012G16KT P6SM SCT035
FM162100 14015G25KT P6SM SCT040
FM170300 16010KT P6SM FEW025 SCT250
FM170900 17004KT 5SM BR SCT015
TEMPO 1710/1713 2SM BR BKN015
FM171400 17008KT P6SM SCT025
FM171600 16012G18KT P6SM SCT030


Example: see airport list